Time;durP1;ratioP1;P1;durP2;ratioP2;P2;SDS_P1;SDS_P2;PMS_P1;PMS_P2;Temp;Humidity;BMP_temperature;BMP_pressure;BME280_temperature;BME280_humidity;BME280_pressure;Samples;Min_cycle;Max_cycle;Signal;HPM_P1;HPM_P2
2021/12/23 00:00:01;;;;;;;9.98;6.43;;;;;;;;;;5114856;28;20177;-51
2021/12/23 00:02:28;;;;;;;7.78;6.32;;;;;;;;;;5114044;28;20274;-51
2021/12/23 00:04:54;;;;;;;7.43;6.18;;;;;;;;;;5114145;28;20266;-51
2021/12/23 00:07:20;;;;;;;7.82;6.13;;;;;;;;;;5115070;28;20524;-51
2021/12/23 00:12:22;;;;;;;9.70;6.32;;;;;;;;;;5113306;28;20467;-51
2021/12/23 00:14:51;;;;;;;7.47;6.05;;;;;;;;;;5114336;28;20234;-51
2021/12/23 00:25:17;;;;;;;8.05;5.93;;;;;;;;;;5107150;28;20204;-51
2021/12/23 00:27:43;;;;;;;7.97;5.93;;;;;;;;;;5115922;28;20201;-51
2021/12/23 00:30:09;;;;;;;7.38;5.60;;;;;;;;;;5097272;28;20234;-51
2021/12/23 00:32:36;;;;;;;5.75;5.10;;;;;;;;;;5111734;28;20275;-51
2021/12/23 00:35:03;;;;;;;6.50;5.10;;;;;;;;;;5112306;28;20264;-51
2021/12/23 00:37:36;;;;;;;6.03;5.40;;;;;;;;;;5113712;28;20211;-51
2021/12/23 00:40:03;;;;;;;7.43;5.35;;;;;;;;;;5114594;28;20173;-51
2021/12/23 00:42:31;;;;;;;5.57;4.97;;;;;;;;;;5113842;28;20181;-51
2021/12/23 00:44:57;;;;;;;7.07;5.82;;;;;;;;;;5112835;28;20238;-51
2021/12/23 00:47:23;;;;;;;5.78;5.15;;;;;;;;;;5101112;28;20205;-51
2021/12/23 00:49:49;;;;;;;6.40;5.43;;;;;;;;;;5089022;28;20262;-51
2021/12/23 00:52:17;;;;;;;6.53;5.00;;;;;;;;;;5094693;28;20491;-51
2021/12/23 00:54:44;;;;;;;6.32;5.05;;;;;;;;;;5093823;28;20180;-51
2021/12/23 00:57:10;;;;;;;6.72;5.47;;;;;;;;;;5092776;28;20213;-51
2021/12/23 00:59:37;;;;;;;5.43;4.57;;;;;;;;;;5092458;28;20178;-51
2021/12/23 01:02:07;;;;;;;6.57;5.28;;;;;;;;;;5090990;28;20465;-51
2021/12/23 01:04:33;;;;;;;5.15;4.57;;;;;;;;;;5091766;28;20218;-51
2021/12/23 01:06:59;;;;;;;5.80;4.60;;;;;;;;;;5094368;28;20256;-51
2021/12/23 01:09:25;;;;;;;6.20;4.88;;;;;;;;;;5093022;28;20209;-51
2021/12/23 01:11:52;;;;;;;6.75;4.57;;;;;;;;;;5075624;28;20456;-51
2021/12/23 01:16:50;;;;;;;5.75;4.55;;;;;;;;;;5092550;28;20209;-51
2021/12/23 01:19:17;;;;;;;5.65;4.60;;;;;;;;;;5088789;28;20178;-51
2021/12/23 01:21:43;;;;;;;6.63;4.63;;;;;;;;;;5092244;28;20193;-51
2021/12/23 01:24:10;;;;;;;7.05;4.88;;;;;;;;;;5093028;28;20186;-51
2021/12/23 01:26:36;;;;;;;5.28;4.45;;;;;;;;;;5093229;28;20185;-51
2021/12/23 01:29:02;;;;;;;4.95;4.40;;;;;;;;;;5090056;28;20499;-51
2021/12/23 01:31:30;;;;;;;5.53;4.68;;;;;;;;;;5093363;28;20192;-51
2021/12/23 01:33:56;;;;;;;4.80;4.40;;;;;;;;;;5090485;28;20174;-51
2021/12/23 01:36:22;;;;;;;5.32;4.43;;;;;;;;;;5093506;28;20192;-51
2021/12/23 01:38:49;;;;;;;5.30;4.65;;;;;;;;;;5093024;28;20178;-51
2021/12/23 01:41:15;;;;;;;5.03;4.53;;;;;;;;;;5091460;28;20181;-51
2021/12/23 01:43:41;;;;;;;5.13;4.10;;;;;;;;;;5091730;28;20234;-51
2021/12/23 01:46:08;;;;;;;4.65;4.25;;;;;;;;;;5089993;28;20193;-51
2021/12/23 01:48:34;;;;;;;5.18;4.18;;;;;;;;;;5091548;28;20209;-51
2021/12/23 01:51:00;;;;;;;5.20;4.47;;;;;;;;;;5101184;28;20178;-51
2021/12/23 01:53:26;;;;;;;4.90;4.05;;;;;;;;;;5097508;28;20181;-52
2021/12/23 01:55:52;;;;;;;7.13;4.75;;;;;;;;;;5094475;28;20619;-51
2021/12/23 01:58:18;;;;;;;5.35;3.97;;;;;;;;;;5092267;28;20194;-51
2021/12/23 02:00:46;;;;;;;5.13;3.92;;;;;;;;;;5095455;28;20216;-51
2021/12/23 02:03:12;;;;;;;4.72;3.88;;;;;;;;;;5097923;28;20182;-51
2021/12/23 02:05:38;;;;;;;4.72;4.22;;;;;;;;;;5098201;28;20182;-51
2021/12/23 02:08:05;;;;;;;4.43;3.80;;;;;;;;;;5097109;28;20209;-52
2021/12/23 02:10:31;;;;;;;4.28;3.67;;;;;;;;;;5092856;28;20177;-52
2021/12/23 02:12:57;;;;;;;4.72;4.03;;;;;;;;;;5086951;28;20178;-51
2021/12/23 02:15:24;;;;;;;4.15;3.75;;;;;;;;;;5086436;28;20192;-52
2021/12/23 02:17:50;;;;;;;4.95;3.95;;;;;;;;;;5097272;28;20177;-51
2021/12/23 02:20:18;;;;;;;4.13;3.53;;;;;;;;;;5097524;28;20480;-51
2021/12/23 02:22:44;;;;;;;3.75;3.28;;;;;;;;;;5092802;28;21614;-50
2021/12/23 02:25:11;;;;;;;3.67;3.28;;;;;;;;;;5092547;28;20174;-51
2021/12/23 02:27:37;;;;;;;5.18;4.00;;;;;;;;;;5097013;28;20201;-51
2021/12/23 02:30:08;;;;;;;4.35;3.95;;;;;;;;;;5084951;28;20179;-51
2021/12/23 02:32:37;;;;;;;4.88;3.58;;;;;;;;;;5094843;28;20209;-51
2021/12/23 02:35:04;;;;;;;4.60;3.90;;;;;;;;;;5086632;28;20270;-51
2021/12/23 02:37:29;;;;;;;4.57;3.80;;;;;;;;;;5095245;28;20182;-51
2021/12/23 02:39:55;;;;;;;4.00;3.33;;;;;;;;;;5097056;28;20548;-51
2021/12/23 02:42:24;;;;;;;4.65;3.60;;;;;;;;;;5082194;28;20174;-51
2021/12/23 02:44:50;;;;;;;4.28;3.50;;;;;;;;;;5094180;28;20201;-51
2021/12/23 02:47:18;;;;;;;3.83;3.40;;;;;;;;;;5089611;28;20292;-51
2021/12/23 02:49:44;;;;;;;4.32;3.50;;;;;;;;;;5091199;28;20182;-51
2021/12/23 02:52:10;;;;;;;3.67;3.38;;;;;;;;;;5092393;28;20181;-51
2021/12/23 02:54:36;;;;;;;4.18;3.63;;;;;;;;;;5090087;28;20177;-51
2021/12/23 02:57:02;;;;;;;4.60;3.30;;;;;;;;;;5092946;28;20238;-51
2021/12/23 02:59:28;;;;;;;4.05;3.65;;;;;;;;;;5087629;28;20190;-52
2021/12/23 03:01:54;;;;;;;3.58;3.00;;;;;;;;;;5089662;28;20205;-51
2021/12/23 03:04:20;;;;;;;3.50;3.20;;;;;;;;;;5093368;28;20560;-51
2021/12/23 03:06:46;;;;;;;3.40;3.05;;;;;;;;;;5096316;28;20209;-51
2021/12/23 03:09:12;;;;;;;4.00;3.42;;;;;;;;;;5096178;28;20533;-51
2021/12/23 03:11:40;;;;;;;3.95;3.58;;;;;;;;;;5092841;28;20193;-51
2021/12/23 03:14:06;;;;;;;3.58;3.28;;;;;;;;;;5095287;28;20191;-51
2021/12/23 03:16:34;;;;;;;3.35;3.05;;;;;;;;;;5095834;28;20297;-51
2021/12/23 03:19:00;;;;;;;3.47;3.15;;;;;;;;;;5094094;28;20185;-51
2021/12/23 03:21:26;;;;;;;3.40;3.10;;;;;;;;;;5094149;28;20177;-51
2021/12/23 03:23:52;;;;;;;3.65;2.78;;;;;;;;;;5094671;28;20185;-51
2021/12/23 03:26:19;;;;;;;2.60;2.40;;;;;;;;;;5091139;28;20227;-51
2021/12/23 03:28:45;;;;;;;3.08;2.80;;;;;;;;;;5095756;28;20198;-51
2021/12/23 03:31:11;;;;;;;3.47;3.08;;;;;;;;;;5094876;28;20185;-51
2021/12/23 03:33:37;;;;;;;3.65;2.92;;;;;;;;;;5093935;28;20250;-51
2021/12/23 03:36:04;;;;;;;2.92;2.60;;;;;;;;;;5094013;28;20173;-51
2021/12/23 03:38:30;;;;;;;3.47;3.08;;;;;;;;;;5096080;28;20430;-51
2021/12/23 03:40:56;;;;;;;4.13;3.20;;;;;;;;;;5095128;28;20303;-51
2021/12/23 03:43:22;;;;;;;3.20;2.90;;;;;;;;;;5076858;28;20193;-51
2021/12/23 03:45:49;;;;;;;3.03;2.80;;;;;;;;;;5095907;28;20269;-51
2021/12/23 03:48:16;;;;;;;3.50;3.20;;;;;;;;;;5112059;28;20266;-51
2021/12/23 03:50:43;;;;;;;3.17;2.85;;;;;;;;;;5113047;28;20226;-51
2021/12/23 03:53:09;;;;;;;3.10;2.80;;;;;;;;;;5114968;28;20186;-51
2021/12/23 03:55:35;;;;;;;3.20;2.90;;;;;;;;;;5114981;28;20196;-51
2021/12/23 03:58:01;;;;;;;3.00;2.70;;;;;;;;;;5113631;28;20184;-51
2021/12/23 04:00:27;;;;;;;3.22;2.55;;;;;;;;;;5114402;28;20471;-51
2021/12/23 04:02:54;;;;;;;2.83;2.50;;;;;;;;;;5116436;28;20177;-51
2021/12/23 04:05:20;;;;;;;2.65;2.40;;;;;;;;;;5113100;28;20237;-51
2021/12/23 04:07:46;;;;;;;2.92;2.70;;;;;;;;;;5116703;28;20197;-51
2021/12/23 04:10:14;;;;;;;2.88;2.58;;;;;;;;;;5112124;28;20178;-51
2021/12/23 04:12:41;;;;;;;2.95;2.67;;;;;;;;;;5114553;28;20208;-51
2021/12/23 04:15:07;;;;;;;2.53;2.33;;;;;;;;;;5112780;28;20181;-51
2021/12/23 04:17:33;;;;;;;3.17;2.80;;;;;;;;;;5117565;27;20181;-51
2021/12/23 04:20:13;;;;;;;3.00;2.70;;;;;;;;;;5114765;28;20181;-51
2021/12/23 04:22:39;;;;;;;2.80;2.60;;;;;;;;;;5115316;28;20176;-51
2021/12/23 04:25:05;;;;;;;2.72;2.50;;;;;;;;;;5113916;28;20185;-51
2021/12/23 04:27:31;;;;;;;2.85;2.65;;;;;;;;;;5107788;28;20207;-51
2021/12/23 04:29:57;;;;;;;2.45;2.25;;;;;;;;;;5110315;28;20173;-51
2021/12/23 04:32:23;;;;;;;3.13;2.80;;;;;;;;;;5114107;28;20459;-51
2021/12/23 04:34:49;;;;;;;3.20;2.70;;;;;;;;;;5114004;28;20177;-51
2021/12/23 04:37:16;;;;;;;2.50;2.30;;;;;;;;;;5113880;28;20196;-51
2021/12/23 04:39:42;;;;;;;2.60;2.40;;;;;;;;;;5114473;28;20207;-51
2021/12/23 04:42:08;;;;;;;2.55;2.35;;;;;;;;;;5115223;28;20200;-51
2021/12/23 04:44:34;;;;;;;2.30;2.10;;;;;;;;;;5112010;28;20202;-51
2021/12/23 04:47:00;;;;;;;2.92;2.63;;;;;;;;;;5105157;28;20198;-51
2021/12/23 04:49:26;;;;;;;2.92;2.40;;;;;;;;;;5093322;28;20456;-51
2021/12/23 04:51:52;;;;;;;2.55;2.35;;;;;;;;;;5093348;28;20194;-51
2021/12/23 04:54:18;;;;;;;2.38;2.20;;;;;;;;;;5093395;28;20181;-51
2021/12/23 04:56:44;;;;;;;3.10;2.45;;;;;;;;;;5084969;28;20173;-51
2021/12/23 04:59:10;;;;;;;2.42;2.17;;;;;;;;;;5093176;28;20574;-51
2021/12/23 05:01:36;;;;;;;2.20;2.00;;;;;;;;;;5092391;28;20220;-51
2021/12/23 05:04:02;;;;;;;3.08;2.50;;;;;;;;;;5093329;28;20178;-51
2021/12/23 05:06:28;;;;;;;3.00;2.70;;;;;;;;;;5092250;28;20180;-51
2021/12/23 05:08:54;;;;;;;2.53;2.30;;;;;;;;;;5094263;28;20202;-51
2021/12/23 05:11:20;;;;;;;2.42;2.22;;;;;;;;;;5092222;28;20220;-51
2021/12/23 05:13:49;;;;;;;3.10;2.20;;;;;;;;;;5092588;28;20579;-51
2021/12/23 05:16:16;;;;;;;2.58;2.38;;;;;;;;;;5093325;28;20235;-51
2021/12/23 05:18:42;;;;;;;2.60;2.40;;;;;;;;;;5092256;28;20181;-51
2021/12/23 05:21:08;;;;;;;2.22;2.00;;;;;;;;;;5092933;28;20190;-51
2021/12/23 05:23:34;;;;;;;2.35;1.90;;;;;;;;;;5092702;28;20185;-51
2021/12/23 05:26:00;;;;;;;2.70;2.20;;;;;;;;;;5092783;28;20240;-51
2021/12/23 05:28:27;;;;;;;2.60;2.40;;;;;;;;;;5092509;28;20615;-51
2021/12/23 05:30:53;;;;;;;2.92;2.63;;;;;;;;;;5074490;28;20499;-51
2021/12/23 05:33:19;;;;;;;2.50;2.30;;;;;;;;;;5093533;28;20178;-51
2021/12/23 05:35:45;;;;;;;2.40;2.20;;;;;;;;;;5091511;28;20173;-51
2021/12/23 05:38:11;;;;;;;2.65;2.45;;;;;;;;;;5093223;28;20177;-51
2021/12/23 05:40:37;;;;;;;2.40;2.13;;;;;;;;;;5090452;28;20184;-51
2021/12/23 05:43:03;;;;;;;2.33;2.13;;;;;;;;;;5093102;28;20449;-51
2021/12/23 05:45:29;;;;;;;2.55;2.30;;;;;;;;;;5090307;28;20230;-51
2021/12/23 05:47:56;;;;;;;3.17;2.30;;;;;;;;;;5099007;28;20223;-51
2021/12/23 05:50:27;;;;;;;2.22;2.05;;;;;;;;;;5096016;28;20193;-51
2021/12/23 05:52:53;;;;;;;2.30;2.10;;;;;;;;;;5097375;28;20226;-51
2021/12/23 05:55:20;;;;;;;2.15;1.95;;;;;;;;;;5097965;28;20181;-51
2021/12/23 05:57:46;;;;;;;2.22;2.03;;;;;;;;;;5091746;28;20217;-51
2021/12/23 06:00:21;;;;;;;2.10;2.00;;;;;;;;;;5094693;28;20189;-51
2021/12/23 06:02:48;;;;;;;1.90;1.80;;;;;;;;;;5093028;28;20212;-51
2021/12/23 06:05:14;;;;;;;2.25;2.05;;;;;;;;;;5094966;28;20484;-51
2021/12/23 06:07:40;;;;;;;3.00;2.28;;;;;;;;;;5104815;28;20231;-51
2021/12/23 06:10:06;;;;;;;2.03;1.92;;;;;;;;;;5097118;28;20178;-51
2021/12/23 06:12:32;;;;;;;2.08;1.90;;;;;;;;;;5094981;28;20205;-51
2021/12/23 06:14:58;;;;;;;2.40;2.20;;;;;;;;;;5104524;28;20281;-51
2021/12/23 06:17:24;;;;;;;2.03;1.88;;;;;;;;;;5102692;28;20186;-51
2021/12/23 06:19:50;;;;;;;2.20;2.00;;;;;;;;;;5112559;28;20185;-51
2021/12/23 06:22:18;;;;;;;2.33;2.13;;;;;;;;;;5101257;28;20189;-51
2021/12/23 06:24:46;;;;;;;2.30;2.10;;;;;;;;;;5100277;28;20178;-51
2021/12/23 06:27:12;;;;;;;2.13;1.92;;;;;;;;;;5102845;28;20478;-51
2021/12/23 06:29:38;;;;;;;2.35;1.90;;;;;;;;;;5109970;28;20555;-51
2021/12/23 06:32:05;;;;;;;3.50;1.80;;;;;;;;;;5098910;28;20290;-51
2021/12/23 06:34:31;;;;;;;2.65;2.03;;;;;;;;;;5102493;28;20425;-51
2021/12/23 06:36:57;;;;;;;3.55;2.00;;;;;;;;;;5105505;28;20181;-51
2021/12/23 06:39:23;;;;;;;5.55;2.40;;;;;;;;;;5103492;28;20799;-51
2021/12/23 06:41:49;;;;;;;4.05;2.28;;;;;;;;;;5104932;28;20272;-51
2021/12/23 06:44:15;;;;;;;5.05;2.30;;;;;;;;;;5100380;28;20299;-51
2021/12/23 06:46:41;;;;;;;7.13;2.30;;;;;;;;;;5095365;28;20198;-51
2021/12/23 06:49:08;;;;;;;5.38;2.30;;;;;;;;;;5090659;28;20316;-50
2021/12/23 06:51:34;;;;;;;7.03;2.38;;;;;;;;;;5094742;28;20185;-50
2021/12/23 06:54:02;;;;;;;5.68;2.70;;;;;;;;;;5086237;28;20178;-51
2021/12/23 06:56:28;;;;;;;4.05;2.67;;;;;;;;;;5091256;28;20319;-51
2021/12/23 06:58:54;;;;;;;3.88;2.63;;;;;;;;;;5090136;28;20182;-51
2021/12/23 07:01:21;;;;;;;8.52;2.58;;;;;;;;;;5092006;28;20181;-51
2021/12/23 07:06:30;;;;;;;5.32;2.40;;;;;;;;;;5089879;28;20182;-51
2021/12/23 07:08:57;;;;;;;6.13;3.33;;;;;;;;;;5085727;28;20202;-51
2021/12/23 07:11:23;;;;;;;6.95;2.50;;;;;;;;;;5083578;28;20249;-51
2021/12/23 07:13:49;;;;;;;6.60;2.50;;;;;;;;;;5091286;28;20178;-51
2021/12/23 07:16:15;;;;;;;7.03;2.33;;;;;;;;;;5091775;28;20193;-51
2021/12/23 07:18:41;;;;;;;7.88;2.60;;;;;;;;;;5084747;28;20745;-51
2021/12/23 07:21:07;;;;;;;3.78;2.85;;;;;;;;;;5092223;28;20193;-51
2021/12/23 07:23:34;;;;;;;7.40;3.00;;;;;;;;;;5091249;28;20181;-51
2021/12/23 07:26:00;;;;;;;3.70;2.67;;;;;;;;;;5093175;28;20478;-51
2021/12/23 07:28:26;;;;;;;5.20;2.70;;;;;;;;;;5090902;28;20259;-51
2021/12/23 07:30:54;;;;;;;3.88;2.80;;;;;;;;;;5088191;28;20449;-51
2021/12/23 07:33:20;;;;;;;7.55;2.88;;;;;;;;;;5086364;28;20559;-50
2021/12/23 07:35:47;;;;;;;11.07;5.55;;;;;;;;;;5091346;28;20216;-49
2021/12/23 07:38:13;;;;;;;16.60;11.70;;;;;;;;;;5091884;28;20186;-53
2021/12/23 07:40:39;;;;;;;116.95;82.60;;;;;;;;;;5090296;28;20243;-47
2021/12/23 07:45:49;;;;;;;181.32;127.70;;;;;;;;;;5091137;28;20268;-48
2021/12/23 07:48:15;;;;;;;336.88;237.80;;;;;;;;;;5101283;28;20238;-48
2021/12/23 07:50:41;;;;;;;661.50;455.13;;;;;;;;;;5096767;28;20177;-48
2021/12/23 07:53:07;;;;;;;440.98;279.35;;;;;;;;;;5105319;28;20252;-48
2021/12/23 07:55:33;;;;;;;432.02;268.90;;;;;;;;;;5111001;28;20281;-48
2021/12/23 07:57:59;;;;;;;412.65;246.07;;;;;;;;;;5105291;28;20215;-48
2021/12/23 08:00:29;;;;;;;383.80;227.50;;;;;;;;;;5098730;28;20585;-48
2021/12/23 08:02:55;;;;;;;360.65;209.90;;;;;;;;;;5102191;28;20542;-47
2021/12/23 08:05:21;;;;;;;333.63;188.68;;;;;;;;;;5108796;28;20271;-49
2021/12/23 08:07:47;;;;;;;288.70;168.18;;;;;;;;;;5095936;28;20250;-50
2021/12/23 08:10:14;;;;;;;279.02;155.50;;;;;;;;;;5092756;28;20178;-48
2021/12/23 08:12:40;;;;;;;295.33;155.48;;;;;;;;;;5107818;28;20623;-50
2021/12/23 08:15:06;;;;;;;281.27;152.65;;;;;;;;;;5107225;28;20264;-52
2021/12/23 08:17:32;;;;;;;296.05;152.65;;;;;;;;;;5101162;28;20201;-51
2021/12/23 08:19:58;;;;;;;303.13;152.55;;;;;;;;;;5098444;28;20182;-51
2021/12/23 08:22:24;;;;;;;297.65;149.07;;;;;;;;;;5087886;28;20908;-51
2021/12/23 08:24:50;;;;;;;258.75;133.75;;;;;;;;;;5104237;28;20185;-51
2021/12/23 08:27:17;;;;;;;273.73;136.73;;;;;;;;;;5109666;28;20595;-51
2021/12/23 08:29:43;;;;;;;278.05;137.95;;;;;;;;;;5100265;28;20174;-51
2021/12/23 08:32:09;;;;;;;287.30;142.93;;;;;;;;;;5093963;28;20552;-50
2021/12/23 08:34:36;;;;;;;327.08;158.80;;;;;;;;;;5101716;28;20184;-51
2021/12/23 08:37:06;;;;;;;333.20;161.88;;;;;;;;;;5100408;28;20583;-50
2021/12/23 08:39:32;;;;;;;346.27;174.25;;;;;;;;;;5103391;28;20704;-50
2021/12/23 08:41:58;;;;;;;316.20;148.27;;;;;;;;;;5103061;28;20479;-50
2021/12/23 08:44:24;;;;;;;273.80;132.02;;;;;;;;;;5100967;28;20254;-51
2021/12/23 08:46:50;;;;;;;246.13;122.25;;;;;;;;;;5112381;28;20186;-50
2021/12/23 08:49:16;;;;;;;211.43;103.72;;;;;;;;;;5099248;28;20618;-51
2021/12/23 08:51:43;;;;;;;201.48;101.05;;;;;;;;;;5100555;28;20208;-51
2021/12/23 08:54:09;;;;;;;157.05;79.05;;;;;;;;;;5105650;28;20260;-50
2021/12/23 08:56:35;;;;;;;149.15;73.85;;;;;;;;;;5107728;28;20297;-49
2021/12/23 08:59:01;;;;;;;136.48;69.40;;;;;;;;;;5105269;28;20288;-51
2021/12/23 09:01:27;;;;;;;125.70;62.78;;;;;;;;;;5093172;28;20619;-49
2021/12/23 09:03:53;;;;;;;112.13;56.30;;;;;;;;;;5097426;28;20212;-50
2021/12/23 09:06:19;;;;;;;99.95;50.97;;;;;;;;;;5099572;28;20271;-50
2021/12/23 09:08:45;;;;;;;98.10;50.33;;;;;;;;;;5102628;28;20236;-49
2021/12/23 09:11:11;;;;;;;82.30;42.95;;;;;;;;;;5092596;28;20194;-50
2021/12/23 09:13:37;;;;;;;102.20;50.70;;;;;;;;;;5098975;28;20190;-49
2021/12/23 09:16:04;;;;;;;81.70;42.85;;;;;;;;;;5101139;28;20197;-50
2021/12/23 09:18:30;;;;;;;68.50;39.85;;;;;;;;;;5098396;28;20188;-49
2021/12/23 09:20:57;;;;;;;72.20;38.58;;;;;;;;;;5101148;28;20478;-49
2021/12/23 09:23:23;;;;;;;60.42;34.25;;;;;;;;;;5104264;28;20184;-49
2021/12/23 09:25:49;;;;;;;62.95;34.10;;;;;;;;;;5100950;28;20177;-50
2021/12/23 09:33:40;;;;;;;51.97;27.45;;;;;;;;;;5098060;28;20200;-49
2021/12/23 09:36:06;;;;;;;45.78;26.33;;;;;;;;;;5106414;28;20177;-49
2021/12/23 09:38:32;;;;;;;44.58;24.13;;;;;;;;;;5103896;28;20626;-46
2021/12/23 09:41:18;;;;;;;35.85;22.52;;;;;;;;;;5101388;28;20191;-49
2021/12/23 09:43:44;;;;;;;34.22;21.40;;;;;;;;;;5103770;28;20176;-49
2021/12/23 09:46:13;;;;;;;38.20;21.67;;;;;;;;;;5100522;28;20189;-50
2021/12/23 09:48:42;;;;;;;34.50;20.80;;;;;;;;;;5087753;28;20220;-49
2021/12/23 09:51:08;;;;;;;31.85;18.05;;;;;;;;;;5095367;28;20205;-49
2021/12/23 09:53:35;;;;;;;35.50;19.10;;;;;;;;;;5090726;28;20199;-49
2021/12/23 09:56:01;;;;;;;36.72;18.05;;;;;;;;;;5106776;28;20197;-49
2021/12/23 09:58:30;;;;;;;34.17;18.40;;;;;;;;;;5101189;28;20434;-49
2021/12/23 10:00:56;;;;;;;29.70;17.75;;;;;;;;;;5095487;28;20642;-49
2021/12/23 10:03:23;;;;;;;26.40;17.35;;;;;;;;;;5098840;28;20193;-49
2021/12/23 10:05:50;;;;;;;28.58;16.73;;;;;;;;;;5104949;28;20185;-49
2021/12/23 10:08:17;;;;;;;30.55;15.70;;;;;;;;;;5101083;28;20218;-49
2021/12/23 10:30:50;;;;;;;19.70;11.57;;;;;;;;;;5093845;28;20193;-49
2021/12/23 10:33:16;;;;;;;15.50;10.35;;;;;;;;;;5055893;28;20186;-49
2021/12/23 10:38:31;;;;;;;19.10;10.75;;;;;;;;;;5100672;28;20463;-49
2021/12/23 10:40:59;;;;;;;14.32;8.80;;;;;;;;;;5096453;28;20200;-49
2021/12/23 10:43:27;;;;;;;15.75;9.70;;;;;;;;;;5104633;28;20895;-49
2021/12/23 10:45:58;;;;;;;15.20;9.70;;;;;;;;;;5091855;28;20180;-49
2021/12/23 10:48:30;;;;;;;13.98;9.43;;;;;;;;;;5098626;28;20212;-49
2021/12/23 10:51:05;;;;;;;13.93;9.60;;;;;;;;;;5097678;28;20268;-49
2021/12/23 10:53:50;;;;;;;15.07;8.98;;;;;;;;;;5108769;28;20172;-49
2021/12/23 10:59:04;;;;;;;12.70;9.10;;;;;;;;;;5084763;28;20193;-49
2021/12/23 11:01:31;;;;;;;14.07;8.45;;;;;;;;;;5096722;28;20217;-49
2021/12/23 11:04:01;;;;;;;11.98;7.82;;;;;;;;;;5090571;28;20173;-49
2021/12/23 11:06:56;;;;;;;12.38;7.43;;;;;;;;;;5100481;28;20459;-49
2021/12/23 11:09:40;;;;;;;13.77;7.60;;;;;;;;;;5093496;28;20227;-49
2021/12/23 11:37:57;;;;;;;10.70;6.07;;;;;;;;;;5098463;28;20198;-49
2021/12/23 11:45:32;;;;;;;8.82;6.20;;;;;;;;;;5096813;28;20170;-49
2021/12/23 11:47:58;;;;;;;9.35;5.65;;;;;;;;;;5104772;27;20200;-55
2021/12/23 11:50:32;;;;;;;8.00;5.60;;;;;;;;;;5099562;28;20189;-47
2021/12/23 11:52:59;;;;;;;9.25;5.47;;;;;;;;;;5095572;28;20200;-48
2021/12/23 11:55:25;;;;;;;10.43;5.40;;;;;;;;;;5104579;28;20219;-48
2021/12/23 11:57:53;;;;;;;6.35;5.20;;;;;;;;;;5110598;28;20189;-51
2021/12/23 12:00:31;;;;;;;7.53;5.35;;;;;;;;;;5102577;28;20436;-51
2021/12/23 12:03:01;;;;;;;6.68;4.70;;;;;;;;;;5097720;28;20314;-50
2021/12/23 12:05:27;;;;;;;7.00;4.22;;;;;;;;;;5102077;28;20186;-49
2021/12/23 12:08:09;;;;;;;7.55;4.65;;;;;;;;;;5109074;28;20213;-44
2021/12/23 12:10:36;;;;;;;7.93;4.90;;;;;;;;;;5103609;28;20606;-49
2021/12/23 12:13:04;;;;;;;14.15;5.25;;;;;;;;;;5111323;28;20192;-48
2021/12/23 12:15:39;;;;;;;7.55;5.40;;;;;;;;;;5104433;28;20178;-53
2021/12/23 12:18:06;;;;;;;75.18;50.70;;;;;;;;;;5107748;28;20177;-50
2021/12/23 12:20:42;;;;;;;331.55;262.88;;;;;;;;;;5099484;28;20463;-49
2021/12/23 12:23:11;;;;;;;196.65;164.15;;;;;;;;;;5098566;28;20216;-51
2021/12/23 12:25:47;;;;;;;492.77;406.35;;;;;;;;;;5105825;28;20197;-49
2021/12/23 12:28:17;;;;;;;505.17;384.40;;;;;;;;;;5093202;28;20202;-49
2021/12/23 12:30:46;;;;;;;365.45;258.83;;;;;;;;;;5103116;28;20177;-48
2021/12/23 12:33:14;;;;;;;327.48;224.02;;;;;;;;;;5103700;28;20174;-49
2021/12/23 12:35:41;;;;;;;248.32;163.30;;;;;;;;;;5104410;28;20188;-47
2021/12/23 12:38:18;;;;;;;205.90;141.25;;;;;;;;;;5106375;28;20177;-51
2021/12/23 12:41:04;;;;;;;185.73;125.70;;;;;;;;;;5104867;28;20314;-54
2021/12/23 12:43:32;;;;;;;147.50;97.45;;;;;;;;;;5107251;28;20177;-49
2021/12/23 12:45:58;;;;;;;130.25;86.97;;;;;;;;;;5103441;28;20185;-48
2021/12/23 12:48:45;;;;;;;111.95;74.90;;;;;;;;;;5093839;28;20616;-52
2021/12/23 12:51:20;;;;;;;92.85;61.33;;;;;;;;;;5088181;28;20222;-47
2021/12/23 12:54:02;;;;;;;75.22;51.45;;;;;;;;;;5090793;28;20331;-48
2021/12/23 12:56:29;;;;;;;72.72;47.92;;;;;;;;;;5091969;28;20205;-50
2021/12/23 12:58:55;;;;;;;67.03;44.63;;;;;;;;;;5095152;28;20526;-46
2021/12/23 13:01:37;;;;;;;61.60;41.53;;;;;;;;;;5093819;28;20193;-49
2021/12/23 13:04:05;;;;;;;51.65;36.88;;;;;;;;;;5090718;28;20174;-47
2021/12/23 13:06:37;;;;;;;49.20;34.75;;;;;;;;;;5093059;28;20178;-48
2021/12/23 13:09:07;;;;;;;45.03;31.83;;;;;;;;;;5095251;28;20229;-49
2021/12/23 13:11:36;;;;;;;41.53;29.92;;;;;;;;;;5093090;28;20178;-49
2021/12/23 13:14:04;;;;;;;37.72;27.70;;;;;;;;;;5093629;28;20177;-49
2021/12/23 13:16:30;;;;;;;39.45;27.48;;;;;;;;;;5093547;28;20425;-48
2021/12/23 13:19:15;;;;;;;35.13;26.63;;;;;;;;;;5093377;28;20250;-57
2021/12/23 13:21:41;;;;;;;34.63;23.13;;;;;;;;;;5090475;28;20189;-50
2021/12/23 13:24:10;;;;;;;31.67;23.65;;;;;;;;;;5093961;28;20177;-48
2021/12/23 13:26:36;;;;;;;32.28;23.35;;;;;;;;;;5091721;28;20189;-47
2021/12/23 13:29:04;;;;;;;30.30;21.95;;;;;;;;;;5094977;28;20207;-48
2021/12/23 13:31:32;;;;;;;29.23;21.80;;;;;;;;;;5093934;28;20205;-60
2021/12/23 13:33:59;;;;;;;29.90;19.45;;;;;;;;;;5092835;28;20184;-50
2021/12/23 13:36:28;;;;;;;29.17;19.67;;;;;;;;;;5090927;28;20872;-48
2021/12/23 13:38:56;;;;;;;24.98;17.83;;;;;;;;;;5076481;28;20188;-48
2021/12/23 13:41:25;;;;;;;26.58;17.35;;;;;;;;;;5091223;28;20194;-47
2021/12/23 13:43:52;;;;;;;28.55;16.45;;;;;;;;;;5089563;28;20178;-46
2021/12/23 13:46:18;;;;;;;22.58;17.02;;;;;;;;;;5088658;28;20262;-48
2021/12/23 13:48:52;;;;;;;20.98;15.68;;;;;;;;;;5103062;28;20201;-47
2021/12/23 13:51:20;;;;;;;23.73;16.02;;;;;;;;;;5103318;28;20189;-47
2021/12/23 13:53:46;;;;;;;21.63;15.23;;;;;;;;;;5109341;28;20181;-47
2021/12/23 13:56:13;;;;;;;21.25;14.02;;;;;;;;;;5105533;28;20223;-47
2021/12/23 13:58:40;;;;;;;23.67;14.90;;;;;;;;;;5093878;28;20539;-48
2021/12/23 14:01:06;;;;;;;18.75;13.82;;;;;;;;;;5093200;28;20177;-48
2021/12/23 14:03:32;;;;;;;18.85;13.80;;;;;;;;;;5099929;28;20227;-48
2021/12/23 14:05:58;;;;;;;19.83;14.15;;;;;;;;;;5101501;28;20181;-48
2021/12/23 14:08:25;;;;;;;21.15;13.77;;;;;;;;;;5098011;28;20521;-48
2021/12/23 14:10:51;;;;;;;20.02;13.90;;;;;;;;;;5104369;28;20277;-48
2021/12/23 14:13:18;;;;;;;15.23;11.57;;;;;;;;;;5100490;28;20259;-48
2021/12/23 14:15:45;;;;;;;16.95;12.05;;;;;;;;;;5099126;28;20228;-48
2021/12/23 14:18:25;;;;;;;19.67;11.95;;;;;;;;;;5100071;28;20207;-48
2021/12/23 14:23:32;;;;;;;15.05;11.10;;;;;;;;;;5102944;28;20253;-48
2021/12/23 14:26:02;;;;;;;13.30;10.50;;;;;;;;;;5094763;28;20193;-48
2021/12/23 14:28:28;;;;;;;17.15;11.32;;;;;;;;;;5103875;28;20293;-48
2021/12/23 14:31:14;;;;;;;14.70;10.82;;;;;;;;;;5103865;28;20315;-48
2021/12/23 14:33:42;;;;;;;14.07;9.95;;;;;;;;;;5100983;28;20173;-48
2021/12/23 14:36:22;;;;;;;12.82;9.65;;;;;;;;;;5101989;28;20178;-48
2021/12/23 14:39:20;;;;;;;14.05;10.23;;;;;;;;;;5094653;28;20538;-48
2021/12/23 14:41:49;;;;;;;14.57;10.27;;;;;;;;;;5059789;28;20575;-48
2021/12/23 14:44:20;;;;;;;14.80;9.40;;;;;;;;;;5106349;28;20272;-48
2021/12/23 14:46:48;;;;;;;12.98;9.50;;;;;;;;;;5098706;28;20584;-48
2021/12/23 14:49:41;;;;;;;13.25;9.85;;;;;;;;;;5079184;28;20591;-48
2021/12/23 14:52:12;;;;;;;12.40;9.27;;;;;;;;;;5098229;28;20440;-48
2021/12/23 14:54:46;;;;;;;12.43;9.05;;;;;;;;;;5097545;28;20192;-48
2021/12/23 14:57:16;;;;;;;14.85;9.35;;;;;;;;;;5098963;28;20177;-48
2021/12/23 14:59:49;;;;;;;11.50;8.90;;;;;;;;;;5099536;28;20220;-48
2021/12/23 15:02:19;;;;;;;11.95;8.60;;;;;;;;;;5097785;28;20192;-48
2021/12/23 15:04:58;;;;;;;10.57;8.75;;;;;;;;;;5096799;28;20218;-48
2021/12/23 15:07:25;;;;;;;10.80;8.55;;;;;;;;;;5097185;28;20189;-48
2021/12/23 15:09:56;;;;;;;11.57;8.70;;;;;;;;;;5102942;28;20183;-48
2021/12/23 15:12:23;;;;;;;10.52;8.52;;;;;;;;;;5098286;28;20174;-48
2021/12/23 15:14:53;;;;;;;11.57;7.93;;;;;;;;;;5105903;28;20181;-48
2021/12/23 15:17:26;;;;;;;10.77;8.45;;;;;;;;;;5092977;28;20270;-48
2021/12/23 15:19:54;;;;;;;11.52;8.10;;;;;;;;;;5098347;28;20559;-48
2021/12/23 15:22:22;;;;;;;9.73;7.53;;;;;;;;;;5096277;28;20260;-48
2021/12/23 15:25:01;;;;;;;10.40;7.47;;;;;;;;;;5102468;28;20201;-48
2021/12/23 15:27:28;;;;;;;8.73;6.85;;;;;;;;;;5090524;28;20448;-48
2021/12/23 15:29:59;;;;;;;11.43;7.57;;;;;;;;;;5089642;28;20781;-48
2021/12/23 15:32:28;;;;;;;10.20;8.00;;;;;;;;;;5096736;28;20189;-48
2021/12/23 15:35:01;;;;;;;9.18;7.30;;;;;;;;;;5096264;28;20178;-48
2021/12/23 15:37:28;;;;;;;8.50;7.05;;;;;;;;;;5101656;28;20189;-48
2021/12/23 15:39:54;;;;;;;9.63;7.95;;;;;;;;;;5108377;28;20173;-48
2021/12/23 15:42:22;;;;;;;8.65;6.85;;;;;;;;;;5101147;28;20170;-47
2021/12/23 15:44:49;;;;;;;8.93;7.13;;;;;;;;;;5103288;28;20184;-47
2021/12/23 15:47:18;;;;;;;8.93;6.88;;;;;;;;;;5099482;28;20277;-48
2021/12/23 15:49:44;;;;;;;7.30;6.55;;;;;;;;;;5106954;28;20181;-48
2021/12/23 15:52:11;;;;;;;8.20;6.72;;;;;;;;;;5099163;28;20193;-48
2021/12/23 15:54:38;;;;;;;8.23;6.70;;;;;;;;;;5107087;28;20182;-48
2021/12/23 15:57:04;;;;;;;7.15;6.45;;;;;;;;;;5089820;28;20189;-48